Tasman Mariner — VRWW8 — position and weather

sailwx.info

Track history (hours):
 
Tides and Currents Weather Stations Pressure Air Temp Water Temp Dewpoint Dewpoint Depression Visibility Wind Speed Wind Dir Waves Ship Positions

Tasman Mariner

Last reported at 2016-Feb-01 22:34 UTC. Time now 2016-Feb-13 02:27 UTC.
Position N 01°15' E 104°06'.
Warning: this ship's position is 11 days out of date.

Length 184 m; beam 27 m; draft 10 m.

Type: Ship (hazmat cat A). MMSI: 477860000.

Date/timePositionNaut miles runAvg speedWind from/ knotsBaromVisibWave heightAir tempDewpointWater temp
2016-Feb-01 22:34N 01°15' E 104°06'9 8.7
2016-Feb-01 21:33N 01°14' E 103°57'9 9.2
2016-Feb-01 20:32N 01°10' E 103°49'  
2016-Jan-29 12:15N 01°13' E 103°30'811.7
2016-Jan-29 11:33N 01°12' E 103°39'7 7.4
2016-Jan-29 10:34N 01°17' E 103°44'1 0.7
2016-Jan-29 09:33N 01°18' E 103°43'0 0.0
2016-Jan-29 08:33N 01°18' E 103°43'0 0.0
2016-Jan-29 07:33N 01°18' E 103°43'0 0.0
2016-Jan-29 06:33N 01°18' E 103°43'0 0.0
2016-Jan-29 05:33N 01°18' E 103°43'0 0.0
2016-Jan-29 04:33N 01°18' E 103°43'0 0.0
2016-Jan-29 03:33N 01°18' E 103°43'0 0.0
2016-Jan-29 02:33N 01°18' E 103°43'0 0.0
2016-Jan-29 01:33N 01°18' E 103°43'0 0.0
2016-Jan-29 00:33N 01°18' E 103°43'0 0.0
2016-Jan-28 23:30N 01°18' E 103°43'0 0.0
2016-Jan-28 22:33N 01°18' E 103°43'0 0.0
2016-Jan-28 21:33N 01°18' E 103°43'0 0.0
2016-Jan-28 20:33N 01°18' E 103°43'0 0.0
2016-Jan-28 19:33N 01°18' E 103°43'0 0.0
2016-Jan-28 18:33N 01°18' E 103°43'0 0.0
2016-Jan-28 17:33N 01°18' E 103°43'0 0.0
2016-Jan-28 16:33N 01°18' E 103°43'0 0.0
2016-Jan-28 15:33N 01°18' E 103°43'0 0.0
2016-Jan-28 14:33N 01°18' E 103°43'4 4.4
2016-Jan-28 13:33N 01°15' E 103°47'6 6.2
2016-Jan-28 12:33N 01°15' E 103°53'0 0.0
2016-Jan-28 11:33N 01°15' E 103°53'0 0.0
2016-Jan-28 10:32N 01°15' E 103°53'0 0.1
2016-Jan-28 09:32N 01°15' E 103°53'0 0.1
2016-Jan-28 08:32N 01°15' E 103°53'0 0.1
2016-Jan-28 07:32N 01°15' E 103°53'0 0.1
2016-Jan-28 06:32N 01°15' E 103°53'0 0.1
2016-Jan-28 05:32N 01°15' E 103°53'0 0.1
2016-Jan-28 04:32N 01°15' E 103°53'0 0.0
2016-Jan-28 03:32N 01°15' E 103°53'0 0.0
2016-Jan-28 02:32N 01°15' E 103°53'0 0.0
2016-Jan-28 01:32N 01°15' E 103°53'0 0.0
2016-Jan-28 00:32N 01°15' E 103°53'0 0.0
2016-Jan-27 23:26N 01°15' E 103°53'0 0.0
2016-Jan-27 22:32N 01°15' E 103°53'0 0.0
2016-Jan-27 21:32N 01°15' E 103°53'0 0.0
2016-Jan-27 20:32N 01°15' E 103°53'0 0.0
2016-Jan-27 19:32N 01°15' E 103°53'0 0.0
2016-Jan-27 18:26N 01°15' E 103°53'0 0.0
2016-Jan-27 17:32N 01°15' E 103°53'1 1.4
2016-Jan-27 16:33N 01°15' E 103°51'2 1.6
2016-Jan-27 15:28N 01°16' E 103°50'0 0.0
2016-Jan-27 14:28N 01°16' E 103°50'0 0.0
2016-Jan-27 13:28N 01°16' E 103°50'0 0.0
2016-Jan-27 12:25N 01°16' E 103°50'0 0.0
2016-Jan-27 11:28N 01°16' E 103°50'0 0.0
2016-Jan-27 10:31N 01°16' E 103°50'0 0.0
2016-Jan-27 09:31N 01°16' E 103°50'0 0.0
2016-Jan-27 08:30N 01°16' E 103°50'0 0.0
2016-Jan-27 07:30N 01°16' E 103°50'0 0.0
2016-Jan-27 06:30N 01°16' E 103°50'0 0.0
2016-Jan-27 05:33N 01°16' E 103°50'0 0.0
2016-Jan-27 04:33N 01°16' E 103°50'0 0.0
2016-Jan-27 03:33N 01°16' E 103°50'0 0.0
2016-Jan-27 02:33N 01°16' E 103°50'0 0.0
2016-Jan-27 01:33N 01°16' E 103°50'0 0.0
2016-Jan-27 00:33N 01°16' E 103°50'3 3.1
2016-Jan-26 23:33N 01°15' E 103°53'0 0.1
2016-Jan-26 22:33N 01°15' E 103°53'0 0.0
2016-Jan-26 21:33N 01°15' E 103°53'0 0.0
2016-Jan-26 20:33N 01°15' E 103°53'0 0.0
2016-Jan-26 19:18N 01°15' E 103°53'0 0.0
2016-Jan-26 18:33N 01°15' E 103°53'0 0.1
2016-Jan-26 17:33N 01°15' E 103°53'0 0.0
2016-Jan-26 16:30N 01°15' E 103°53'0 0.0
2016-Jan-26 15:31N 01°15' E 103°53'0 0.0
2016-Jan-26 14:31N 01°15' E 103°53'0 0.0
2016-Jan-26 13:31N 01°15' E 103°53'0 0.0
2016-Jan-26 12:31N 01°15' E 103°53'0 0.0
2016-Jan-26 11:31N 01°15' E 103°53'0 0.0
2016-Jan-26 10:31N 01°15' E 103°53'0 0.2
2016-Jan-26 09:19N 01°15' E 103°53'0 0.1
2016-Jan-26 08:30N 01°15' E 103°53'0 0.0
2016-Jan-26 07:31N 01°15' E 103°53'0 0.1
2016-Jan-26 06:31N 01°15' E 103°53'0 0.1
2016-Jan-26 05:30N 01°15' E 103°53'0 0.0
2016-Jan-26 04:31N 01°15' E 103°53'0 0.1
2016-Jan-26 03:29N 01°15' E 103°53'0 0.0
2016-Jan-26 02:32N 01°15' E 103°53'0 0.0
2016-Jan-26 01:29N 01°15' E 103°53'0 0.0
2016-Jan-26 00:29N 01°15' E 103°53'0 0.0
2016-Jan-25 23:32N 01°15' E 103°53'0 0.0
2016-Jan-25 22:32N 01°15' E 103°53'0 0.0
2016-Jan-25 21:29N 01°15' E 103°53'0 0.0
2016-Jan-25 20:29N 01°15' E 103°53'0 0.0
2016-Jan-25 19:20N 01°15' E 103°53'0 0.0
2016-Jan-25 18:32N 01°15' E 103°53'0 0.0
2016-Jan-25 17:27N 01°15' E 103°53'0 0.0
2016-Jan-25 16:31N 01°15' E 103°53'0 0.0
2016-Jan-25 15:31N 01°15' E 103°53'0 0.0
2016-Jan-25 14:31N 01°15' E 103°53'0 0.0
2016-Jan-25 13:31N 01°15' E 103°53'0 0.0
2016-Jan-25 12:31N 01°15' E 103°53'0 0.0
2016-Jan-25 11:28N 01°15' E 103°53'0 0.0
2016-Jan-25 10:31N 01°15' E 103°53'0 0.0
2016-Jan-25 09:31N 01°15' E 103°53'0 0.2
2016-Jan-25 08:28N 01°15' E 103°53'0 0.0
2016-Jan-25 07:29N 01°15' E 103°53'0 0.1
2016-Jan-25 06:26N 01°15' E 103°53'0 0.1
2016-Jan-25 05:32N 01°15' E 103°53'0 0.0
2016-Jan-25 04:33N 01°15' E 103°53'0 0.1
2016-Jan-25 03:29N 01°15' E 103°53'0 0.1
2016-Jan-25 02:32N 01°15' E 103°53'0 0.0
2016-Jan-24 21:29N 01°15' E 103°53'0 0.1
2016-Jan-24 20:29N 01°15' E 103°53'0 0.0
2016-Jan-24 19:08N 01°15' E 103°53'0 0.1
2016-Jan-24 18:23N 01°15' E 103°53'0 0.0
2016-Jan-24 17:32N 01°15' E 103°53'0 0.0
2016-Jan-24 16:29N 01°15' E 103°53'0 0.0
2016-Jan-24 15:29N 01°15' E 103°53'0 0.0
2016-Jan-24 14:23N 01°15' E 103°53'0 0.0
2016-Jan-24 13:29N 01°15' E 103°53'0 0.0
2016-Jan-24 12:29N 01°15' E 103°53'0 0.1
2016-Jan-24 11:29N 01°15' E 103°53'0 0.0
2016-Jan-24 10:29N 01°15' E 103°53'0 0.1
2016-Jan-24 09:29N 01°15' E 103°53'0 0.0
2016-Jan-24 08:20N 01°15' E 103°53'0 0.2
2016-Jan-24 07:29N 01°15' E 103°53'0 0.1
2016-Jan-24 06:29N 01°15' E 103°53'0 0.1
2016-Jan-24 05:32N 01°15' E 103°53'0 0.1
2016-Jan-24 04:29N 01°15' E 103°53'0 0.1
2016-Jan-24 03:29N 01°15' E 103°53'0 0.0
2016-Jan-24 02:23N 01°15' E 103°53'0 0.0
2016-Jan-24 01:29N 01°15' E 103°53'0 0.0
2016-Jan-24 00:17N 01°15' E 103°53'0 0.0
2016-Jan-23 23:26N 01°15' E 103°53'0 0.0
2016-Jan-23 22:29N 01°15' E 103°53'0 0.0
2016-Jan-23 21:29N 01°15' E 103°53'0 0.0
2016-Jan-23 20:29N 01°15' E 103°53'0 0.0
2016-Jan-23 19:32N 01°15' E 103°53'0 0.0
2016-Jan-23 18:32N 01°15' E 103°53'0 0.0
2016-Jan-23 17:32N 01°15' E 103°53'0 0.0
2016-Jan-23 16:29N 01°15' E 103°53'0 0.0
2016-Jan-23 15:32N 01°15' E 103°53'0 0.0
2016-Jan-23 14:32N 01°15' E 103°53'0 0.0
2016-Jan-23 13:32N 01°15' E 103°53'0 0.0
2016-Jan-23 12:29N 01°15' E 103°53'0 0.0
2016-Jan-23 11:32N 01°15' E 103°53'0 0.1
2016-Jan-23 10:29N 01°15' E 103°53'0 0.2
2016-Jan-23 09:32N 01°15' E 103°53'0 0.2
2016-Jan-23 08:32N 01°15' E 103°53'0 0.1
2016-Jan-23 07:32N 01°15' E 103°53'0 0.0
2016-Jan-23 06:32N 01°15' E 103°53'0 0.0
2016-Jan-23 05:32N 01°15' E 103°53'0 0.1
2016-Jan-23 04:26N 01°15' E 103°53'0 0.1
2016-Jan-23 03:32N 01°15' E 103°53'0 0.1
2016-Jan-23 02:32N 01°15' E 103°53'0 0.0
2016-Jan-23 01:29N 01°15' E 103°53'0 0.0
2016-Jan-23 00:29N 01°15' E 103°53'0 0.0
2016-Jan-22 23:29N 01°15' E 103°53'  
Track history (hours):
 
Tides and Currents Weather Stations Pressure Air Temp Water Temp Dewpoint Dewpoint Depression Visibility Wind Speed Wind Dir Waves Ship Positions

Tasman Mariner

Last reported at 2016-Feb-01 22:34 UTC. Time now 2016-Feb-13 02:27 UTC.
Position N 01°15' E 104°06'.
Warning: this ship's position is 11 days out of date.

Length 184 m; beam 27 m; draft 10 m.

Type: Ship (hazmat cat A). MMSI: 477860000.

Date/timePositionNaut miles runAvg speedWind from/ knotsBaromVisibWave heightAir tempDewpointWater temp
2016-Feb-01 22:34N 01°15' E 104°06'9 8.7
2016-Feb-01 21:33N 01°14' E 103°57'9 9.2
2016-Feb-01 20:32N 01°10' E 103°49'  
2016-Jan-29 12:15N 01°13' E 103°30'811.7
2016-Jan-29 11:33N 01°12' E 103°39'7 7.4
2016-Jan-29 10:34N 01°17' E 103°44'1 0.7
2016-Jan-29 09:33N 01°18' E 103°43'0 0.0
2016-Jan-29 08:33N 01°18' E 103°43'0 0.0
2016-Jan-29 07:33N 01°18' E 103°43'0 0.0
2016-Jan-29 06:33N 01°18' E 103°43'0 0.0
2016-Jan-29 05:33N 01°18' E 103°43'0 0.0
2016-Jan-29 04:33N 01°18' E 103°43'0 0.0
2016-Jan-29 03:33N 01°18' E 103°43'0 0.0
2016-Jan-29 02:33N 01°18' E 103°43'0 0.0
2016-Jan-29 01:33N 01°18' E 103°43'0 0.0
2016-Jan-29 00:33N 01°18' E 103°43'0 0.0
2016-Jan-28 23:30N 01°18' E 103°43'0 0.0
2016-Jan-28 22:33N 01°18' E 103°43'0 0.0
2016-Jan-28 21:33N 01°18' E 103°43'0 0.0
2016-Jan-28 20:33N 01°18' E 103°43'0 0.0
2016-Jan-28 19:33N 01°18' E 103°43'0 0.0
2016-Jan-28 18:33N 01°18' E 103°43'0 0.0
2016-Jan-28 17:33N 01°18' E 103°43'0 0.0
2016-Jan-28 16:33N 01°18' E 103°43'0 0.0
2016-Jan-28 15:33N 01°18' E 103°43'0 0.0
2016-Jan-28 14:33N 01°18' E 103°43'4 4.4
2016-Jan-28 13:33N 01°15' E 103°47'6 6.2
2016-Jan-28 12:33N 01°15' E 103°53'0 0.0
2016-Jan-28 11:33N 01°15' E 103°53'0 0.0
2016-Jan-28 10:32N 01°15' E 103°53'0 0.1
2016-Jan-28 09:32N 01°15' E 103°53'0 0.1
2016-Jan-28 08:32N 01°15' E 103°53'0 0.1
2016-Jan-28 07:32N 01°15' E 103°53'0 0.1
2016-Jan-28 06:32N 01°15' E 103°53'0 0.1
2016-Jan-28 05:32N 01°15' E 103°53'0 0.1
2016-Jan-28 04:32N 01°15' E 103°53'0 0.0
2016-Jan-28 03:32N 01°15' E 103°53'0 0.0
2016-Jan-28 02:32N 01°15' E 103°53'0 0.0
2016-Jan-28 01:32N 01°15' E 103°53'0 0.0
2016-Jan-28 00:32N 01°15' E 103°53'0 0.0
2016-Jan-27 23:26N 01°15' E 103°53'0 0.0
2016-Jan-27 22:32N 01°15' E 103°53'0 0.0
2016-Jan-27 21:32N 01°15' E 103°53'0 0.0
2016-Jan-27 20:32N 01°15' E 103°53'0 0.0
2016-Jan-27 19:32N 01°15' E 103°53'0 0.0
2016-Jan-27 18:26N 01°15' E 103°53'0 0.0
2016-Jan-27 17:32N 01°15' E 103°53'1 1.4
2016-Jan-27 16:33N 01°15' E 103°51'2 1.6
2016-Jan-27 15:28N 01°16' E 103°50'0 0.0
2016-Jan-27 14:28N 01°16' E 103°50'0 0.0
2016-Jan-27 13:28N 01°16' E 103°50'0 0.0
2016-Jan-27 12:25N 01°16' E 103°50'0 0.0
2016-Jan-27 11:28N 01°16' E 103°50'0 0.0
2016-Jan-27 10:31N 01°16' E 103°50'0 0.0
2016-Jan-27 09:31N 01°16' E 103°50'0 0.0
2016-Jan-27 08:30N 01°16' E 103°50'0 0.0
2016-Jan-27 07:30N 01°16' E 103°50'0 0.0
2016-Jan-27 06:30N 01°16' E 103°50'0 0.0
2016-Jan-27 05:33N 01°16' E 103°50'0 0.0
2016-Jan-27 04:33N 01°16' E 103°50'0 0.0
2016-Jan-27 03:33N 01°16' E 103°50'0 0.0
2016-Jan-27 02:33N 01°16' E 103°50'0 0.0
2016-Jan-27 01:33N 01°16' E 103°50'0 0.0
2016-Jan-27 00:33N 01°16' E 103°50'3 3.1
2016-Jan-26 23:33N 01°15' E 103°53'0 0.1
2016-Jan-26 22:33N 01°15' E 103°53'0 0.0
2016-Jan-26 21:33N 01°15' E 103°53'0 0.0
2016-Jan-26 20:33N 01°15' E 103°53'0 0.0
2016-Jan-26 19:18N 01°15' E 103°53'0 0.0
2016-Jan-26 18:33N 01°15' E 103°53'0 0.1
2016-Jan-26 17:33N 01°15' E 103°53'0 0.0
2016-Jan-26 16:30N 01°15' E 103°53'0 0.0
2016-Jan-26 15:31N 01°15' E 103°53'0 0.0
2016-Jan-26 14:31N 01°15' E 103°53'0 0.0
2016-Jan-26 13:31N 01°15' E 103°53'0 0.0
2016-Jan-26 12:31N 01°15' E 103°53'0 0.0
2016-Jan-26 11:31N 01°15' E 103°53'0 0.0
2016-Jan-26 10:31N 01°15' E 103°53'0 0.2
2016-Jan-26 09:19N 01°15' E 103°53'0 0.1
2016-Jan-26 08:30N 01°15' E 103°53'0 0.0
2016-Jan-26 07:31N 01°15' E 103°53'0 0.1
2016-Jan-26 06:31N 01°15' E 103°53'0 0.1
2016-Jan-26 05:30N 01°15' E 103°53'0 0.0
2016-Jan-26 04:31N 01°15' E 103°53'0 0.1
2016-Jan-26 03:29N 01°15' E 103°53'0 0.0
2016-Jan-26 02:32N 01°15' E 103°53'0 0.0
2016-Jan-26 01:29N 01°15' E 103°53'0 0.0
2016-Jan-26 00:29N 01°15' E 103°53'0 0.0
2016-Jan-25 23:32N 01°15' E 103°53'0 0.0
2016-Jan-25 22:32N 01°15' E 103°53'0 0.0
2016-Jan-25 21:29N 01°15' E 103°53'0 0.0
2016-Jan-25 20:29N 01°15' E 103°53'0 0.0
2016-Jan-25 19:20N 01°15' E 103°53'0 0.0
2016-Jan-25 18:32N 01°15' E 103°53'0 0.0
2016-Jan-25 17:27N 01°15' E 103°53'0 0.0
2016-Jan-25 16:31N 01°15' E 103°53'0 0.0
2016-Jan-25 15:31N 01°15' E 103°53'0 0.0
2016-Jan-25 14:31N 01°15' E 103°53'0 0.0
2016-Jan-25 13:31N 01°15' E 103°53'0 0.0
2016-Jan-25 12:31N 01°15' E 103°53'0 0.0
2016-Jan-25 11:28N 01°15' E 103°53'0 0.0
2016-Jan-25 10:31N 01°15' E 103°53'0 0.0
2016-Jan-25 09:31N 01°15' E 103°53'0 0.2
2016-Jan-25 08:28N 01°15' E 103°53'0 0.0
2016-Jan-25 07:29N 01°15' E 103°53'0 0.1
2016-Jan-25 06:26N 01°15' E 103°53'0 0.1
2016-Jan-25 05:32N 01°15' E 103°53'0 0.0
2016-Jan-25 04:33N 01°15' E 103°53'0 0.1
2016-Jan-25 03:29N 01°15' E 103°53'0 0.1
2016-Jan-25 02:32N 01°15' E 103°53'0 0.0
2016-Jan-24 21:29N 01°15' E 103°53'0 0.1
2016-Jan-24 20:29N 01°15' E 103°53'0 0.0
2016-Jan-24 19:08N 01°15' E 103°53'0 0.1
2016-Jan-24 18:23N 01°15' E 103°53'0 0.0
2016-Jan-24 17:32N 01°15' E 103°53'0 0.0
2016-Jan-24 16:29N 01°15' E 103°53'0 0.0
2016-Jan-24 15:29N 01°15' E 103°53'0 0.0
2016-Jan-24 14:23N 01°15' E 103°53'0 0.0
2016-Jan-24 13:29N 01°15' E 103°53'0 0.0
2016-Jan-24 12:29N 01°15' E 103°53'0 0.1
2016-Jan-24 11:29N 01°15' E 103°53'0 0.0
2016-Jan-24 10:29N 01°15' E 103°53'0 0.1
2016-Jan-24 09:29N 01°15' E 103°53'0 0.0
2016-Jan-24 08:20N 01°15' E 103°53'0 0.2
2016-Jan-24 07:29N 01°15' E 103°53'0 0.1
2016-Jan-24 06:29N 01°15' E 103°53'0 0.1
2016-Jan-24 05:32N 01°15' E 103°53'0 0.1
2016-Jan-24 04:29N 01°15' E 103°53'0 0.1
2016-Jan-24 03:29N 01°15' E 103°53'0 0.0
2016-Jan-24 02:23N 01°15' E 103°53'0 0.0
2016-Jan-24 01:29N 01°15' E 103°53'0 0.0
2016-Jan-24 00:17N 01°15' E 103°53'0 0.0
2016-Jan-23 23:26N 01°15' E 103°53'0 0.0
2016-Jan-23 22:29N 01°15' E 103°53'0 0.0
2016-Jan-23 21:29N 01°15' E 103°53'0 0.0
2016-Jan-23 20:29N 01°15' E 103°53'0 0.0
2016-Jan-23 19:32N 01°15' E 103°53'0 0.0
2016-Jan-23 18:32N 01°15' E 103°53'0 0.0
2016-Jan-23 17:32N 01°15' E 103°53'0 0.0
2016-Jan-23 16:29N 01°15' E 103°53'0 0.0
2016-Jan-23 15:32N 01°15' E 103°53'0 0.0
2016-Jan-23 14:32N 01°15' E 103°53'0 0.0
2016-Jan-23 13:32N 01°15' E 103°53'0 0.0
2016-Jan-23 12:29N 01°15' E 103°53'0 0.0
2016-Jan-23 11:32N 01°15' E 103°53'0 0.1
2016-Jan-23 10:29N 01°15' E 103°53'0 0.2
2016-Jan-23 09:32N 01°15' E 103°53'0 0.2
2016-Jan-23 08:32N 01°15' E 103°53'0 0.1
2016-Jan-23 07:32N 01°15' E 103°53'0 0.0
2016-Jan-23 06:32N 01°15' E 103°53'0 0.0
2016-Jan-23 05:32N 01°15' E 103°53'0 0.1
2016-Jan-23 04:26N 01°15' E 103°53'0 0.1
2016-Jan-23 03:32N 01°15' E 103°53'0 0.1
2016-Jan-23 02:32N 01°15' E 103°53'0 0.0
2016-Jan-23 01:29N 01°15' E 103°53'0 0.0
2016-Jan-23 00:29N 01°15' E 103°53'0 0.0
2016-Jan-22 23:29N 01°15' E 103°53'  

Dump ship's entire track history